sensor_id;sensor_type;location;lat;lon;timestamp;P1;durP1;ratioP1;P2;durP2;ratioP2
15878;SDS011;61999;51.514;14.614;2022-08-19T00:01:27;14.33;;;13.13;;
15878;SDS011;61999;51.514;14.614;2022-08-19T00:03:57;12.83;;;11.67;;
15878;SDS011;61999;51.514;14.614;2022-08-19T00:06:27;13.23;;;12.10;;
15878;SDS011;61999;51.514;14.614;2022-08-19T00:08:58;14.97;;;13.50;;
15878;SDS011;61999;51.514;14.614;2022-08-19T00:11:26;13.63;;;12.53;;
15878;SDS011;61999;51.514;14.614;2022-08-19T00:13:55;15.10;;;13.70;;
15878;SDS011;61999;51.514;14.614;2022-08-19T00:16:24;15.57;;;14.23;;
15878;SDS011;61999;51.514;14.614;2022-08-19T00:18:53;14.73;;;13.53;;
15878;SDS011;61999;51.514;14.614;2022-08-19T00:21:22;15.17;;;13.77;;
15878;SDS011;61999;51.514;14.614;2022-08-19T00:23:52;15.10;;;13.80;;
15878;SDS011;61999;51.514;14.614;2022-08-19T00:26:25;15.03;;;13.63;;
15878;SDS011;61999;51.514;14.614;2022-08-19T00:28:55;15.23;;;14.03;;
15878;SDS011;61999;51.514;14.614;2022-08-19T00:31:23;14.27;;;13.17;;
15878;SDS011;61999;51.514;14.614;2022-08-19T00:33:53;16.03;;;14.70;;
15878;SDS011;61999;51.514;14.614;2022-08-19T00:36:21;16.70;;;15.30;;
15878;SDS011;61999;51.514;14.614;2022-08-19T00:38:49;16.00;;;14.50;;
15878;SDS011;61999;51.514;14.614;2022-08-19T00:41:19;14.33;;;13.13;;
15878;SDS011;61999;51.514;14.614;2022-08-19T00:43:59;13.40;;;12.30;;
15878;SDS011;61999;51.514;14.614;2022-08-19T00:46:33;13.73;;;12.73;;
15878;SDS011;61999;51.514;14.614;2022-08-19T00:49:05;13.77;;;12.37;;
15878;SDS011;61999;51.514;14.614;2022-08-19T00:51:40;12.40;;;11.40;;
15878;SDS011;61999;51.514;14.614;2022-08-19T00:54:12;14.70;;;13.50;;
15878;SDS011;61999;51.514;14.614;2022-08-19T00:56:41;12.53;;;11.63;;
15878;SDS011;61999;51.514;14.614;2022-08-19T00:59:11;13.77;;;12.67;;
15878;SDS011;61999;51.514;14.614;2022-08-19T01:01:41;13.40;;;12.30;;
15878;SDS011;61999;51.514;14.614;2022-08-19T01:04:11;12.67;;;11.37;;
15878;SDS011;61999;51.514;14.614;2022-08-19T01:06:40;12.67;;;11.77;;
15878;SDS011;61999;51.514;14.614;2022-08-19T01:09:08;13.23;;;12.13;;
15878;SDS011;61999;51.514;14.614;2022-08-19T01:11:38;13.90;;;12.50;;
15878;SDS011;61999;51.514;14.614;2022-08-19T01:14:12;13.00;;;11.80;;
15878;SDS011;61999;51.514;14.614;2022-08-19T01:16:43;13.63;;;12.53;;
15878;SDS011;61999;51.514;14.614;2022-08-19T01:19:15;18.17;;;16.57;;
15878;SDS011;61999;51.514;14.614;2022-08-19T01:21:52;17.30;;;15.80;;
15878;SDS011;61999;51.514;14.614;2022-08-19T01:24:29;16.20;;;14.90;;
15878;SDS011;61999;51.514;14.614;2022-08-19T01:26:57;17.20;;;15.80;;
15878;SDS011;61999;51.514;14.614;2022-08-19T01:29:25;17.20;;;15.77;;
15878;SDS011;61999;51.514;14.614;2022-08-19T01:31:55;16.00;;;14.70;;
15878;SDS011;61999;51.514;14.614;2022-08-19T01:34:23;14.90;;;13.73;;
15878;SDS011;61999;51.514;14.614;2022-08-19T01:36:51;13.87;;;12.83;;
15878;SDS011;61999;51.514;14.614;2022-08-19T01:39:20;16.17;;;14.77;;
15878;SDS011;61999;51.514;14.614;2022-08-19T01:41:53;16.33;;;15.07;;
15878;SDS011;61999;51.514;14.614;2022-08-19T01:44:21;14.97;;;13.77;;
15878;SDS011;61999;51.514;14.614;2022-08-19T01:46:51;18.27;;;16.53;;
15878;SDS011;61999;51.514;14.614;2022-08-19T01:49:20;19.00;;;17.40;;
15878;SDS011;61999;51.514;14.614;2022-08-19T01:51:50;18.50;;;16.87;;
15878;SDS011;61999;51.514;14.614;2022-08-19T01:54:21;17.33;;;15.77;;
15878;SDS011;61999;51.514;14.614;2022-08-19T01:56:53;16.10;;;14.77;;
15878;SDS011;61999;51.514;14.614;2022-08-19T01:59:27;14.07;;;12.77;;
15878;SDS011;61999;51.514;14.614;2022-08-19T02:01:57;14.00;;;12.70;;
15878;SDS011;61999;51.514;14.614;2022-08-19T02:04:25;14.10;;;12.97;;
15878;SDS011;61999;51.514;14.614;2022-08-19T02:06:53;13.70;;;12.57;;
15878;SDS011;61999;51.514;14.614;2022-08-19T02:09:21;14.27;;;12.97;;
15878;SDS011;61999;51.514;14.614;2022-08-19T02:11:49;13.83;;;12.83;;
15878;SDS011;61999;51.514;14.614;2022-08-19T02:14:18;13.97;;;12.87;;
15878;SDS011;61999;51.514;14.614;2022-08-19T02:16:46;14.37;;;12.97;;
15878;SDS011;61999;51.514;14.614;2022-08-19T02:19:14;13.30;;;12.27;;
15878;SDS011;61999;51.514;14.614;2022-08-19T02:21:42;14.50;;;13.33;;
15878;SDS011;61999;51.514;14.614;2022-08-19T02:24:10;13.87;;;12.73;;
15878;SDS011;61999;51.514;14.614;2022-08-19T02:26:39;15.03;;;13.83;;
15878;SDS011;61999;51.514;14.614;2022-08-19T02:29:07;16.50;;;15.23;;
15878;SDS011;61999;51.514;14.614;2022-08-19T02:31:37;14.67;;;13.40;;
15878;SDS011;61999;51.514;14.614;2022-08-19T02:34:05;14.60;;;13.50;;
15878;SDS011;61999;51.514;14.614;2022-08-19T02:36:33;13.53;;;12.53;;
15878;SDS011;61999;51.514;14.614;2022-08-19T02:39:01;14.10;;;13.00;;
15878;SDS011;61999;51.514;14.614;2022-08-19T02:41:31;15.57;;;14.37;;
15878;SDS011;61999;51.514;14.614;2022-08-19T02:44:01;16.20;;;14.83;;
15878;SDS011;61999;51.514;14.614;2022-08-19T02:46:31;15.00;;;13.80;;
15878;SDS011;61999;51.514;14.614;2022-08-19T02:49:04;14.10;;;13.00;;
15878;SDS011;61999;51.514;14.614;2022-08-19T02:51:35;14.77;;;13.67;;
15878;SDS011;61999;51.514;14.614;2022-08-19T02:54:07;14.80;;;13.50;;
15878;SDS011;61999;51.514;14.614;2022-08-19T02:56:39;15.07;;;13.77;;
15878;SDS011;61999;51.514;14.614;2022-08-19T02:59:09;15.63;;;14.07;;
15878;SDS011;61999;51.514;14.614;2022-08-19T03:01:38;16.53;;;15.13;;
15878;SDS011;61999;51.514;14.614;2022-08-19T03:04:11;14.93;;;13.67;;
15878;SDS011;61999;51.514;14.614;2022-08-19T03:06:42;17.77;;;16.00;;
15878;SDS011;61999;51.514;14.614;2022-08-19T03:09:14;16.93;;;15.27;;
15878;SDS011;61999;51.514;14.614;2022-08-19T03:11:42;16.87;;;15.47;;
15878;SDS011;61999;51.514;14.614;2022-08-19T03:14:10;15.03;;;13.83;;
15878;SDS011;61999;51.514;14.614;2022-08-19T03:16:41;15.90;;;14.60;;
15878;SDS011;61999;51.514;14.614;2022-08-19T03:19:13;13.67;;;12.53;;
15878;SDS011;61999;51.514;14.614;2022-08-19T03:21:45;13.17;;;12.07;;
15878;SDS011;61999;51.514;14.614;2022-08-19T03:24:13;13.67;;;12.47;;
15878;SDS011;61999;51.514;14.614;2022-08-19T03:26:44;13.50;;;12.40;;
15878;SDS011;61999;51.514;14.614;2022-08-19T03:29:15;14.37;;;13.03;;
15878;SDS011;61999;51.514;14.614;2022-08-19T03:31:45;14.37;;;13.20;;
15878;SDS011;61999;51.514;14.614;2022-08-19T03:34:18;15.33;;;14.10;;
15878;SDS011;61999;51.514;14.614;2022-08-19T03:36:53;14.60;;;13.20;;
15878;SDS011;61999;51.514;14.614;2022-08-19T03:39:22;15.40;;;14.10;;
15878;SDS011;61999;51.514;14.614;2022-08-19T03:41:52;13.93;;;12.83;;
15878;SDS011;61999;51.514;14.614;2022-08-19T03:44:23;16.73;;;15.23;;
15878;SDS011;61999;51.514;14.614;2022-08-19T03:46:59;16.07;;;14.67;;
15878;SDS011;61999;51.514;14.614;2022-08-19T03:49:32;14.33;;;13.03;;
15878;SDS011;61999;51.514;14.614;2022-08-19T03:52:01;12.93;;;11.83;;
15878;SDS011;61999;51.514;14.614;2022-08-19T03:54:33;13.93;;;12.67;;
15878;SDS011;61999;51.514;14.614;2022-08-19T03:57:02;15.23;;;13.93;;
15878;SDS011;61999;51.514;14.614;2022-08-19T03:59:32;14.87;;;13.43;;
15878;SDS011;61999;51.514;14.614;2022-08-19T04:02:06;14.80;;;13.60;;
15878;SDS011;61999;51.514;14.614;2022-08-19T04:04:39;15.33;;;14.03;;
15878;SDS011;61999;51.514;14.614;2022-08-19T04:07:10;15.50;;;14.10;;
15878;SDS011;61999;51.514;14.614;2022-08-19T04:09:41;14.53;;;13.27;;
15878;SDS011;61999;51.514;14.614;2022-08-19T04:12:09;16.03;;;14.43;;
15878;SDS011;61999;51.514;14.614;2022-08-19T04:14:37;15.80;;;14.00;;
15878;SDS011;61999;51.514;14.614;2022-08-19T04:17:05;13.37;;;12.23;;
15878;SDS011;61999;51.514;14.614;2022-08-19T04:19:34;16.23;;;14.60;;
15878;SDS011;61999;51.514;14.614;2022-08-19T04:22:04;14.27;;;13.00;;
15878;SDS011;61999;51.514;14.614;2022-08-19T04:24:34;13.47;;;12.33;;
15878;SDS011;61999;51.514;14.614;2022-08-19T04:27:02;16.53;;;14.83;;
15878;SDS011;61999;51.514;14.614;2022-08-19T04:29:32;13.57;;;12.27;;
15878;SDS011;61999;51.514;14.614;2022-08-19T04:32:02;16.87;;;15.30;;
15878;SDS011;61999;51.514;14.614;2022-08-19T04:34:31;16.07;;;14.57;;
15878;SDS011;61999;51.514;14.614;2022-08-19T04:36:59;13.03;;;12.03;;
15878;SDS011;61999;51.514;14.614;2022-08-19T04:39:29;13.83;;;12.53;;
15878;SDS011;61999;51.514;14.614;2022-08-19T04:42:15;13.80;;;12.40;;
15878;SDS011;61999;51.514;14.614;2022-08-19T04:45:03;15.77;;;14.33;;
15878;SDS011;61999;51.514;14.614;2022-08-19T04:47:32;17.73;;;16.03;;
15878;SDS011;61999;51.514;14.614;2022-08-19T04:50:00;13.80;;;12.60;;
15878;SDS011;61999;51.514;14.614;2022-08-19T04:52:28;13.03;;;12.03;;
15878;SDS011;61999;51.514;14.614;2022-08-19T04:54:58;16.63;;;15.23;;
15878;SDS011;61999;51.514;14.614;2022-08-19T04:57:26;14.87;;;13.67;;
15878;SDS011;61999;51.514;14.614;2022-08-19T04:59:55;14.60;;;13.40;;
15878;SDS011;61999;51.514;14.614;2022-08-19T05:02:24;16.93;;;15.43;;
15878;SDS011;61999;51.514;14.614;2022-08-19T05:04:56;17.30;;;15.90;;
15878;SDS011;61999;51.514;14.614;2022-08-19T05:07:26;18.20;;;16.70;;
15878;SDS011;61999;51.514;14.614;2022-08-19T05:09:54;18.27;;;16.30;;
15878;SDS011;61999;51.514;14.614;2022-08-19T05:12:24;18.03;;;16.50;;
15878;SDS011;61999;51.514;14.614;2022-08-19T05:14:53;17.13;;;15.47;;
15878;SDS011;61999;51.514;14.614;2022-08-19T05:17:22;19.20;;;17.40;;
15878;SDS011;61999;51.514;14.614;2022-08-19T05:19:53;17.97;;;16.27;;
15878;SDS011;61999;51.514;14.614;2022-08-19T05:22:38;18.83;;;17.20;;
15878;SDS011;61999;51.514;14.614;2022-08-19T05:25:08;19.83;;;17.80;;
15878;SDS011;61999;51.514;14.614;2022-08-19T05:27:41;17.93;;;16.13;;
15878;SDS011;61999;51.514;14.614;2022-08-19T05:30:10;19.70;;;17.90;;
15878;SDS011;61999;51.514;14.614;2022-08-19T05:32:39;17.53;;;15.77;;
15878;SDS011;61999;51.514;14.614;2022-08-19T05:35:08;17.83;;;16.13;;
15878;SDS011;61999;51.514;14.614;2022-08-19T05:37:36;17.17;;;15.70;;
15878;SDS011;61999;51.514;14.614;2022-08-19T05:40:06;18.00;;;16.20;;
15878;SDS011;61999;51.514;14.614;2022-08-19T05:42:36;17.53;;;15.93;;
15878;SDS011;61999;51.514;14.614;2022-08-19T05:45:06;15.80;;;14.40;;
15878;SDS011;61999;51.514;14.614;2022-08-19T05:47:35;17.30;;;15.77;;
15878;SDS011;61999;51.514;14.614;2022-08-19T05:50:03;17.03;;;15.43;;
15878;SDS011;61999;51.514;14.614;2022-08-19T05:52:32;17.83;;;16.13;;
15878;SDS011;61999;51.514;14.614;2022-08-19T05:55:02;19.40;;;17.60;;
15878;SDS011;61999;51.514;14.614;2022-08-19T05:57:31;18.77;;;17.27;;
15878;SDS011;61999;51.514;14.614;2022-08-19T05:59:59;19.73;;;17.80;;
15878;SDS011;61999;51.514;14.614;2022-08-19T06:02:29;18.63;;;16.93;;
15878;SDS011;61999;51.514;14.614;2022-08-19T06:04:57;20.50;;;17.43;;
15878;SDS011;61999;51.514;14.614;2022-08-19T06:07:25;22.60;;;17.80;;
15878;SDS011;61999;51.514;14.614;2022-08-19T06:09:53;20.10;;;18.30;;
15878;SDS011;61999;51.514;14.614;2022-08-19T06:12:22;21.23;;;19.03;;
15878;SDS011;61999;51.514;14.614;2022-08-19T06:14:56;20.30;;;17.60;;
15878;SDS011;61999;51.514;14.614;2022-08-19T06:17:24;18.57;;;16.70;;
15878;SDS011;61999;51.514;14.614;2022-08-19T06:19:54;19.73;;;17.73;;
15878;SDS011;61999;51.514;14.614;2022-08-19T06:22:23;19.90;;;18.00;;
15878;SDS011;61999;51.514;14.614;2022-08-19T06:24:51;17.30;;;15.53;;
15878;SDS011;61999;51.514;14.614;2022-08-19T06:27:20;16.00;;;14.60;;
15878;SDS011;61999;51.514;14.614;2022-08-19T06:29:49;20.60;;;18.57;;
15878;SDS011;61999;51.514;14.614;2022-08-19T06:32:17;18.63;;;16.80;;
15878;SDS011;61999;51.514;14.614;2022-08-19T06:34:45;17.87;;;15.97;;
15878;SDS011;61999;51.514;14.614;2022-08-19T06:37:15;16.97;;;15.33;;
15878;SDS011;61999;51.514;14.614;2022-08-19T06:39:43;16.67;;;15.03;;
15878;SDS011;61999;51.514;14.614;2022-08-19T06:42:12;17.40;;;15.70;;
15878;SDS011;61999;51.514;14.614;2022-08-19T06:44:42;17.97;;;16.17;;
15878;SDS011;61999;51.514;14.614;2022-08-19T06:47:13;16.73;;;15.27;;
15878;SDS011;61999;51.514;14.614;2022-08-19T06:49:44;17.20;;;15.53;;
15878;SDS011;61999;51.514;14.614;2022-08-19T06:52:12;17.07;;;15.37;;
15878;SDS011;61999;51.514;14.614;2022-08-19T06:54:41;17.00;;;15.30;;
15878;SDS011;61999;51.514;14.614;2022-08-19T06:57:09;18.07;;;16.57;;
15878;SDS011;61999;51.514;14.614;2022-08-19T06:59:41;16.97;;;15.47;;
15878;SDS011;61999;51.514;14.614;2022-08-19T07:02:09;20.33;;;18.53;;
15878;SDS011;61999;51.514;14.614;2022-08-19T07:04:37;17.50;;;15.90;;
15878;SDS011;61999;51.514;14.614;2022-08-19T07:07:08;20.90;;;18.77;;
15878;SDS011;61999;51.514;14.614;2022-08-19T07:09:39;19.67;;;17.57;;
15878;SDS011;61999;51.514;14.614;2022-08-19T07:12:11;19.77;;;17.93;;
15878;SDS011;61999;51.514;14.614;2022-08-19T07:14:41;20.00;;;18.13;;
15878;SDS011;61999;51.514;14.614;2022-08-19T07:17:12;18.53;;;16.90;;
15878;SDS011;61999;51.514;14.614;2022-08-19T07:19:40;19.43;;;17.70;;
15878;SDS011;61999;51.514;14.614;2022-08-19T07:22:09;17.10;;;15.40;;
15878;SDS011;61999;51.514;14.614;2022-08-19T07:24:37;18.43;;;16.53;;
15878;SDS011;61999;51.514;14.614;2022-08-19T07:27:07;21.10;;;19.10;;
15878;SDS011;61999;51.514;14.614;2022-08-19T07:29:36;20.10;;;18.03;;
15878;SDS011;61999;51.514;14.614;2022-08-19T07:32:04;20.87;;;18.87;;
15878;SDS011;61999;51.514;14.614;2022-08-19T07:34:33;23.20;;;21.10;;
15878;SDS011;61999;51.514;14.614;2022-08-19T07:37:03;20.73;;;18.63;;
15878;SDS011;61999;51.514;14.614;2022-08-19T07:39:33;20.70;;;18.47;;
15878;SDS011;61999;51.514;14.614;2022-08-19T07:42:05;21.43;;;19.40;;
15878;SDS011;61999;51.514;14.614;2022-08-19T07:44:37;22.77;;;20.17;;
15878;SDS011;61999;51.514;14.614;2022-08-19T07:47:06;20.37;;;18.27;;
15878;SDS011;61999;51.514;14.614;2022-08-19T07:49:34;22.83;;;20.57;;
15878;SDS011;61999;51.514;14.614;2022-08-19T07:52:03;20.80;;;18.70;;
15878;SDS011;61999;51.514;14.614;2022-08-19T07:54:37;21.13;;;19.10;;
15878;SDS011;61999;51.514;14.614;2022-08-19T07:57:08;22.47;;;20.00;;
15878;SDS011;61999;51.514;14.614;2022-08-19T07:59:37;22.17;;;19.87;;
15878;SDS011;61999;51.514;14.614;2022-08-19T08:02:05;23.23;;;20.83;;
15878;SDS011;61999;51.514;14.614;2022-08-19T08:04:33;22.20;;;20.00;;
15878;SDS011;61999;51.514;14.614;2022-08-19T08:07:19;23.67;;;21.17;;
15878;SDS011;61999;51.514;14.614;2022-08-19T08:10:05;22.63;;;20.27;;
15878;SDS011;61999;51.514;14.614;2022-08-19T08:12:37;21.97;;;19.67;;
15878;SDS011;61999;51.514;14.614;2022-08-19T08:15:08;22.17;;;20.03;;
15878;SDS011;61999;51.514;14.614;2022-08-19T08:17:42;20.17;;;18.07;;
15878;SDS011;61999;51.514;14.614;2022-08-19T08:20:12;21.17;;;19.27;;
15878;SDS011;61999;51.514;14.614;2022-08-19T08:22:42;21.70;;;18.90;;
15878;SDS011;61999;51.514;14.614;2022-08-19T08:25:29;20.47;;;17.53;;
15878;SDS011;61999;51.514;14.614;2022-08-19T08:27:58;20.27;;;18.27;;
15878;SDS011;61999;51.514;14.614;2022-08-19T08:30:27;18.70;;;16.90;;
15878;SDS011;61999;51.514;14.614;2022-08-19T08:32:58;17.40;;;15.73;;
15878;SDS011;61999;51.514;14.614;2022-08-19T08:35:26;16.70;;;15.10;;
15878;SDS011;61999;51.514;14.614;2022-08-19T08:37:54;15.77;;;14.27;;
15878;SDS011;61999;51.514;14.614;2022-08-19T08:40:23;14.27;;;12.97;;
15878;SDS011;61999;51.514;14.614;2022-08-19T08:42:57;14.33;;;12.97;;
15878;SDS011;61999;51.514;14.614;2022-08-19T08:45:34;14.27;;;12.93;;
15878;SDS011;61999;51.514;14.614;2022-08-19T08:48:12;13.07;;;11.97;;
15878;SDS011;61999;51.514;14.614;2022-08-19T08:50:46;12.77;;;11.63;;
15878;SDS011;61999;51.514;14.614;2022-08-19T08:53:19;12.67;;;11.37;;
15878;SDS011;61999;51.514;14.614;2022-08-19T08:55:48;12.27;;;11.13;;
15878;SDS011;61999;51.514;14.614;2022-08-19T08:58:19;12.40;;;11.30;;
15878;SDS011;61999;51.514;14.614;2022-08-19T09:00:56;12.27;;;11.07;;
15878;SDS011;61999;51.514;14.614;2022-08-19T09:03:26;13.80;;;12.40;;
15878;SDS011;61999;51.514;14.614;2022-08-19T09:05:57;13.30;;;11.93;;
15878;SDS011;61999;51.514;14.614;2022-08-19T09:08:33;22.57;;;14.50;;
15878;SDS011;61999;51.514;14.614;2022-08-19T09:11:15;16.00;;;14.23;;
15878;SDS011;61999;51.514;14.614;2022-08-19T09:14:05;15.50;;;13.87;;
15878;SDS011;61999;51.514;14.614;2022-08-19T09:17:05;15.27;;;13.87;;
15878;SDS011;61999;51.514;14.614;2022-08-19T09:19:34;16.53;;;14.87;;
15878;SDS011;61999;51.514;14.614;2022-08-19T09:22:15;15.63;;;14.03;;
15878;SDS011;61999;51.514;14.614;2022-08-19T09:24:43;17.40;;;15.60;;
15878;SDS011;61999;51.514;14.614;2022-08-19T09:27:11;15.93;;;14.33;;
15878;SDS011;61999;51.514;14.614;2022-08-19T09:29:40;16.83;;;15.23;;
15878;SDS011;61999;51.514;14.614;2022-08-19T09:32:08;16.73;;;15.03;;
15878;SDS011;61999;51.514;14.614;2022-08-19T09:34:36;18.57;;;16.60;;
15878;SDS011;61999;51.514;14.614;2022-08-19T09:37:04;20.37;;;17.73;;
15878;SDS011;61999;51.514;14.614;2022-08-19T09:39:32;18.57;;;16.67;;
15878;SDS011;61999;51.514;14.614;2022-08-19T09:42:00;22.87;;;18.03;;
15878;SDS011;61999;51.514;14.614;2022-08-19T09:44:29;20.57;;;18.47;;
15878;SDS011;61999;51.514;14.614;2022-08-19T09:47:01;19.30;;;17.07;;
15878;SDS011;61999;51.514;14.614;2022-08-19T09:49:30;22.83;;;18.60;;
15878;SDS011;61999;51.514;14.614;2022-08-19T09:51:58;19.90;;;17.77;;
15878;SDS011;61999;51.514;14.614;2022-08-19T09:54:26;17.30;;;15.50;;
15878;SDS011;61999;51.514;14.614;2022-08-19T09:56:55;20.47;;;18.13;;
15878;SDS011;61999;51.514;14.614;2022-08-19T09:59:27;20.93;;;16.80;;
15878;SDS011;61999;51.514;14.614;2022-08-19T10:01:56;19.20;;;17.33;;
15878;SDS011;61999;51.514;14.614;2022-08-19T10:04:26;19.23;;;16.00;;
15878;SDS011;61999;51.514;14.614;2022-08-19T10:07:14;18.77;;;16.77;;
15878;SDS011;61999;51.514;14.614;2022-08-19T10:09:42;18.93;;;16.93;;
15878;SDS011;61999;51.514;14.614;2022-08-19T10:12:10;19.40;;;17.40;;
15878;SDS011;61999;51.514;14.614;2022-08-19T10:14:38;19.80;;;17.50;;
15878;SDS011;61999;51.514;14.614;2022-08-19T10:17:06;17.13;;;15.37;;
15878;SDS011;61999;51.514;14.614;2022-08-19T10:19:35;19.43;;;17.43;;
15878;SDS011;61999;51.514;14.614;2022-08-19T10:22:04;19.50;;;17.47;;
15878;SDS011;61999;51.514;14.614;2022-08-19T10:24:34;18.10;;;16.40;;
15878;SDS011;61999;51.514;14.614;2022-08-19T10:27:02;16.87;;;15.37;;
15878;SDS011;61999;51.514;14.614;2022-08-19T10:29:32;18.43;;;16.67;;
15878;SDS011;61999;51.514;14.614;2022-08-19T10:32:00;18.83;;;17.00;;
15878;SDS011;61999;51.514;14.614;2022-08-19T10:34:32;16.77;;;15.27;;
15878;SDS011;61999;51.514;14.614;2022-08-19T10:37:02;20.17;;;18.27;;
15878;SDS011;61999;51.514;14.614;2022-08-19T10:39:32;17.50;;;15.90;;
15878;SDS011;61999;51.514;14.614;2022-08-19T10:42:04;18.63;;;16.93;;
15878;SDS011;61999;51.514;14.614;2022-08-19T10:44:33;18.73;;;17.03;;
15878;SDS011;61999;51.514;14.614;2022-08-19T10:47:02;18.70;;;16.90;;
15878;SDS011;61999;51.514;14.614;2022-08-19T10:49:31;19.70;;;17.77;;
15878;SDS011;61999;51.514;14.614;2022-08-19T10:52:20;18.17;;;16.57;;
15878;SDS011;61999;51.514;14.614;2022-08-19T10:55:00;16.03;;;14.60;;
15878;SDS011;61999;51.514;14.614;2022-08-19T10:57:57;18.63;;;17.00;;
15878;SDS011;61999;51.514;14.614;2022-08-19T11:00:27;17.13;;;15.43;;
15878;SDS011;61999;51.514;14.614;2022-08-19T11:02:55;18.90;;;17.00;;
15878;SDS011;61999;51.514;14.614;2022-08-19T11:05:23;18.53;;;16.93;;
15878;SDS011;61999;51.514;14.614;2022-08-19T11:07:52;19.73;;;17.97;;
15878;SDS011;61999;51.514;14.614;2022-08-19T11:10:20;19.23;;;17.43;;
15878;SDS011;61999;51.514;14.614;2022-08-19T11:12:49;18.53;;;17.03;;
15878;SDS011;61999;51.514;14.614;2022-08-19T11:15:20;19.93;;;18.03;;
15878;SDS011;61999;51.514;14.614;2022-08-19T11:17:50;18.80;;;17.27;;
15878;SDS011;61999;51.514;14.614;2022-08-19T11:20:20;19.63;;;17.83;;
15878;SDS011;61999;51.514;14.614;2022-08-19T11:22:50;16.73;;;15.10;;
15878;SDS011;61999;51.514;14.614;2022-08-19T11:25:20;19.17;;;17.57;;
15878;SDS011;61999;51.514;14.614;2022-08-19T11:27:48;19.10;;;17.30;;
15878;SDS011;61999;51.514;14.614;2022-08-19T11:30:18;16.97;;;15.47;;
15878;SDS011;61999;51.514;14.614;2022-08-19T11:32:46;18.87;;;17.30;;
15878;SDS011;61999;51.514;14.614;2022-08-19T11:35:14;18.57;;;17.00;;
15878;SDS011;61999;51.514;14.614;2022-08-19T11:37:46;18.23;;;16.37;;
15878;SDS011;61999;51.514;14.614;2022-08-19T11:40:16;17.07;;;15.33;;
15878;SDS011;61999;51.514;14.614;2022-08-19T11:42:44;18.07;;;16.37;;
15878;SDS011;61999;51.514;14.614;2022-08-19T11:45:28;16.50;;;15.03;;
15878;SDS011;61999;51.514;14.614;2022-08-19T11:47:57;19.70;;;17.90;;
15878;SDS011;61999;51.514;14.614;2022-08-19T11:50:25;16.67;;;14.87;;
15878;SDS011;61999;51.514;14.614;2022-08-19T11:52:54;18.70;;;17.13;;
15878;SDS011;61999;51.514;14.614;2022-08-19T11:55:24;17.43;;;15.93;;
15878;SDS011;61999;51.514;14.614;2022-08-19T11:57:52;17.77;;;16.17;;
15878;SDS011;61999;51.514;14.614;2022-08-19T12:00:20;18.07;;;16.53;;
15878;SDS011;61999;51.514;14.614;2022-08-19T12:02:48;19.50;;;17.70;;
15878;SDS011;61999;51.514;14.614;2022-08-19T12:05:16;19.90;;;18.20;;
15878;SDS011;61999;51.514;14.614;2022-08-19T12:07:44;18.17;;;16.47;;
15878;SDS011;61999;51.514;14.614;2022-08-19T12:10:12;18.17;;;16.63;;
15878;SDS011;61999;51.514;14.614;2022-08-19T12:12:41;18.43;;;16.73;;
15878;SDS011;61999;51.514;14.614;2022-08-19T12:15:12;18.87;;;17.00;;
15878;SDS011;61999;51.514;14.614;2022-08-19T12:17:40;16.93;;;15.27;;
15878;SDS011;61999;51.514;14.614;2022-08-19T12:20:09;17.53;;;15.93;;
15878;SDS011;61999;51.514;14.614;2022-08-19T12:22:41;17.77;;;16.17;;
15878;SDS011;61999;51.514;14.614;2022-08-19T12:25:10;17.07;;;15.57;;
15878;SDS011;61999;51.514;14.614;2022-08-19T12:27:39;17.30;;;15.70;;
15878;SDS011;61999;51.514;14.614;2022-08-19T12:30:10;18.73;;;17.03;;
15878;SDS011;61999;51.514;14.614;2022-08-19T12:32:40;17.00;;;15.30;;
15878;SDS011;61999;51.514;14.614;2022-08-19T12:35:08;18.33;;;16.63;;
15878;SDS011;61999;51.514;14.614;2022-08-19T12:37:37;17.87;;;16.03;;
15878;SDS011;61999;51.514;14.614;2022-08-19T12:40:10;17.93;;;16.13;;
15878;SDS011;61999;51.514;14.614;2022-08-19T12:42:40;15.77;;;14.37;;
15878;SDS011;61999;51.514;14.614;2022-08-19T12:45:10;16.83;;;15.23;;
15878;SDS011;61999;51.514;14.614;2022-08-19T12:47:40;17.60;;;16.00;;
15878;SDS011;61999;51.514;14.614;2022-08-19T12:50:09;16.50;;;14.80;;
15878;SDS011;61999;51.514;14.614;2022-08-19T12:52:37;16.80;;;15.30;;
15878;SDS011;61999;51.514;14.614;2022-08-19T12:55:07;17.53;;;16.10;;
15878;SDS011;61999;51.514;14.614;2022-08-19T12:57:37;17.27;;;15.67;;
15878;SDS011;61999;51.514;14.614;2022-08-19T13:00:08;16.03;;;14.43;;
15878;SDS011;61999;51.514;14.614;2022-08-19T13:02:41;16.40;;;14.97;;
15878;SDS011;61999;51.514;14.614;2022-08-19T13:05:13;15.87;;;14.43;;
15878;SDS011;61999;51.514;14.614;2022-08-19T13:07:46;16.93;;;15.13;;
15878;SDS011;61999;51.514;14.614;2022-08-19T13:10:14;16.17;;;14.77;;
15878;SDS011;61999;51.514;14.614;2022-08-19T13:12:47;16.30;;;14.77;;
15878;SDS011;61999;51.514;14.614;2022-08-19T13:15:21;16.60;;;15.13;;
15878;SDS011;61999;51.514;14.614;2022-08-19T13:17:51;16.50;;;14.90;;
15878;SDS011;61999;51.514;14.614;2022-08-19T13:20:21;13.77;;;12.57;;
15878;SDS011;61999;51.514;14.614;2022-08-19T13:22:50;15.77;;;14.20;;
15878;SDS011;61999;51.514;14.614;2022-08-19T13:25:19;15.80;;;14.27;;
15878;SDS011;61999;51.514;14.614;2022-08-19T13:27:48;15.67;;;14.27;;
15878;SDS011;61999;51.514;14.614;2022-08-19T13:30:18;17.03;;;15.37;;
15878;SDS011;61999;51.514;14.614;2022-08-19T13:33:08;15.53;;;14.03;;
15878;SDS011;61999;51.514;14.614;2022-08-19T13:35:41;16.70;;;15.00;;
15878;SDS011;61999;51.514;14.614;2022-08-19T13:38:13;16.47;;;14.90;;
15878;SDS011;61999;51.514;14.614;2022-08-19T13:40:44;17.27;;;15.67;;
15878;SDS011;61999;51.514;14.614;2022-08-19T13:43:13;16.43;;;14.83;;
15878;SDS011;61999;51.514;14.614;2022-08-19T13:45:42;17.17;;;15.57;;
15878;SDS011;61999;51.514;14.614;2022-08-19T13:48:11;15.93;;;14.50;;
15878;SDS011;61999;51.514;14.614;2022-08-19T13:50:40;17.53;;;15.97;;
15878;SDS011;61999;51.514;14.614;2022-08-19T13:53:11;15.87;;;14.37;;
15878;SDS011;61999;51.514;14.614;2022-08-19T13:55:40;17.20;;;15.73;;
15878;SDS011;61999;51.514;14.614;2022-08-19T13:58:10;15.20;;;13.80;;
15878;SDS011;61999;51.514;14.614;2022-08-19T14:00:40;16.13;;;14.53;;
15878;SDS011;61999;51.514;14.614;2022-08-19T14:03:12;16.63;;;15.13;;
15878;SDS011;61999;51.514;14.614;2022-08-19T14:05:41;15.70;;;14.10;;
15878;SDS011;61999;51.514;14.614;2022-08-19T14:08:09;15.93;;;14.53;;
15878;SDS011;61999;51.514;14.614;2022-08-19T14:10:38;16.93;;;15.33;;
15878;SDS011;61999;51.514;14.614;2022-08-19T14:13:06;18.23;;;16.53;;
15878;SDS011;61999;51.514;14.614;2022-08-19T14:15:35;16.33;;;14.73;;
15878;SDS011;61999;51.514;14.614;2022-08-19T14:18:04;17.43;;;15.87;;
15878;SDS011;61999;51.514;14.614;2022-08-19T14:20:33;16.77;;;15.03;;
15878;SDS011;61999;51.514;14.614;2022-08-19T14:23:02;18.97;;;17.23;;
15878;SDS011;61999;51.514;14.614;2022-08-19T14:25:32;17.03;;;15.43;;
15878;SDS011;61999;51.514;14.614;2022-08-19T14:28:01;18.27;;;16.67;;